sensor_id;sensor_type;location;lat;lon;timestamp;temperature;humidity
14995;DHT22;7593;49.006;8.372;2023-03-14T00:00:23;10.40;99.90
14995;DHT22;7593;49.006;8.372;2023-03-14T00:02:52;10.50;99.90
14995;DHT22;7593;49.006;8.372;2023-03-14T00:05:19;10.60;99.90
14995;DHT22;7593;49.006;8.372;2023-03-14T00:07:46;10.70;99.90
14995;DHT22;7593;49.006;8.372;2023-03-14T00:10:15;10.80;99.90
14995;DHT22;7593;49.006;8.372;2023-03-14T00:12:42;10.90;99.90
14995;DHT22;7593;49.006;8.372;2023-03-14T00:15:10;11.00;99.90
14995;DHT22;7593;49.006;8.372;2023-03-14T00:17:37;11.10;99.90
14995;DHT22;7593;49.006;8.372;2023-03-14T00:20:05;11.20;99.90
14995;DHT22;7593;49.006;8.372;2023-03-14T00:22:35;11.30;99.90
14995;DHT22;7593;49.006;8.372;2023-03-14T00:25:02;11.40;99.90
14995;DHT22;7593;49.006;8.372;2023-03-14T00:27:31;11.50;99.90
14995;DHT22;7593;49.006;8.372;2023-03-14T00:29:58;11.50;99.90
14995;DHT22;7593;49.006;8.372;2023-03-14T00:32:25;11.60;99.90
14995;DHT22;7593;49.006;8.372;2023-03-14T00:34:52;11.60;99.90
14995;DHT22;7593;49.006;8.372;2023-03-14T00:37:18;11.60;99.90
14995;DHT22;7593;49.006;8.372;2023-03-14T00:39:45;11.70;99.90
14995;DHT22;7593;49.006;8.372;2023-03-14T00:42:13;11.70;99.90
14995;DHT22;7593;49.006;8.372;2023-03-14T00:44:41;11.80;99.90
14995;DHT22;7593;49.006;8.372;2023-03-14T00:47:08;11.80;99.90
14995;DHT22;7593;49.006;8.372;2023-03-14T00:49:35;11.80;99.90
14995;DHT22;7593;49.006;8.372;2023-03-14T00:52:02;11.90;99.90
14995;DHT22;7593;49.006;8.372;2023-03-14T00:54:28;11.90;99.90
14995;DHT22;7593;49.006;8.372;2023-03-14T00:56:55;12.00;99.90
14995;DHT22;7593;49.006;8.372;2023-03-14T00:59:23;12.00;99.90
14995;DHT22;7593;49.006;8.372;2023-03-14T01:01:51;11.90;99.90
14995;DHT22;7593;49.006;8.372;2023-03-14T01:04:18;11.90;99.90
14995;DHT22;7593;49.006;8.372;2023-03-14T01:06:44;12.00;99.90
14995;DHT22;7593;49.006;8.372;2023-03-14T01:09:11;11.90;99.90
14995;DHT22;7593;49.006;8.372;2023-03-14T01:11:38;12.00;99.90
14995;DHT22;7593;49.006;8.372;2023-03-14T01:14:05;12.00;99.90
14995;DHT22;7593;49.006;8.372;2023-03-14T01:16:33;12.00;99.90
14995;DHT22;7593;49.006;8.372;2023-03-14T01:19:02;12.00;99.90
14995;DHT22;7593;49.006;8.372;2023-03-14T01:21:31;12.00;99.90
14995;DHT22;7593;49.006;8.372;2023-03-14T01:23:59;12.00;99.90
14995;DHT22;7593;49.006;8.372;2023-03-14T01:26:28;11.90;99.90
14995;DHT22;7593;49.006;8.372;2023-03-14T01:28:56;11.90;99.90
14995;DHT22;7593;49.006;8.372;2023-03-14T01:31:24;11.80;99.90
14995;DHT22;7593;49.006;8.372;2023-03-14T01:33:51;11.70;99.90
14995;DHT22;7593;49.006;8.372;2023-03-14T01:36:19;11.60;99.90
14995;DHT22;7593;49.006;8.372;2023-03-14T01:38:46;11.60;99.90
14995;DHT22;7593;49.006;8.372;2023-03-14T01:41:16;11.60;99.90
14995;DHT22;7593;49.006;8.372;2023-03-14T01:43:43;11.60;99.90
14995;DHT22;7593;49.006;8.372;2023-03-14T01:49:03;11.50;99.90
14995;DHT22;7593;49.006;8.372;2023-03-14T01:51:38;11.40;99.90
14995;DHT22;7593;49.006;8.372;2023-03-14T01:54:12;11.40;99.90
14995;DHT22;7593;49.006;8.372;2023-03-14T01:56:42;11.40;99.90
14995;DHT22;7593;49.006;8.372;2023-03-14T01:59:10;11.40;99.90
14995;DHT22;7593;49.006;8.372;2023-03-14T02:01:38;11.40;99.90
14995;DHT22;7593;49.006;8.372;2023-03-14T02:04:07;11.40;99.90
14995;DHT22;7593;49.006;8.372;2023-03-14T02:06:42;11.30;99.90
14995;DHT22;7593;49.006;8.372;2023-03-14T02:09:11;11.30;99.90
14995;DHT22;7593;49.006;8.372;2023-03-14T02:11:38;11.30;99.90
14995;DHT22;7593;49.006;8.372;2023-03-14T02:14:05;11.30;99.90
14995;DHT22;7593;49.006;8.372;2023-03-14T02:16:34;11.30;99.90
14995;DHT22;7593;49.006;8.372;2023-03-14T02:19:02;11.30;99.90
14995;DHT22;7593;49.006;8.372;2023-03-14T02:21:38;11.30;99.90
14995;DHT22;7593;49.006;8.372;2023-03-14T02:24:13;11.10;99.90
14995;DHT22;7593;49.006;8.372;2023-03-14T02:29:29;11.10;99.90
14995;DHT22;7593;49.006;8.372;2023-03-14T02:31:56;11.10;99.90
14995;DHT22;7593;49.006;8.372;2023-03-14T02:34:24;11.20;99.90
14995;DHT22;7593;49.006;8.372;2023-03-14T02:36:51;11.20;99.90
14995;DHT22;7593;49.006;8.372;2023-03-14T02:39:23;11.30;99.90
14995;DHT22;7593;49.006;8.372;2023-03-14T02:41:51;11.30;99.90
14995;DHT22;7593;49.006;8.372;2023-03-14T02:44:17;11.30;99.90
14995;DHT22;7593;49.006;8.372;2023-03-14T02:46:46;11.30;99.90
14995;DHT22;7593;49.006;8.372;2023-03-14T02:49:14;11.30;99.90
14995;DHT22;7593;49.006;8.372;2023-03-14T02:51:41;11.30;99.90
14995;DHT22;7593;49.006;8.372;2023-03-14T02:54:10;11.30;99.90
14995;DHT22;7593;49.006;8.372;2023-03-14T02:56:37;11.20;99.90
14995;DHT22;7593;49.006;8.372;2023-03-14T02:59:04;11.20;99.90
14995;DHT22;7593;49.006;8.372;2023-03-14T03:01:30;11.20;99.90
14995;DHT22;7593;49.006;8.372;2023-03-14T03:03:58;11.20;99.90
14995;DHT22;7593;49.006;8.372;2023-03-14T03:06:26;11.20;99.90
14995;DHT22;7593;49.006;8.372;2023-03-14T03:08:52;11.10;99.90
14995;DHT22;7593;49.006;8.372;2023-03-14T03:11:19;11.20;99.90
14995;DHT22;7593;49.006;8.372;2023-03-14T03:13:46;11.10;99.90
14995;DHT22;7593;49.006;8.372;2023-03-14T03:16:13;11.10;99.90
14995;DHT22;7593;49.006;8.372;2023-03-14T03:18:40;11.10;99.90
14995;DHT22;7593;49.006;8.372;2023-03-14T03:21:08;11.10;99.90
14995;DHT22;7593;49.006;8.372;2023-03-14T03:23:35;11.10;99.90
14995;DHT22;7593;49.006;8.372;2023-03-14T03:26:02;11.00;99.90
14995;DHT22;7593;49.006;8.372;2023-03-14T03:28:29;11.10;99.90
14995;DHT22;7593;49.006;8.372;2023-03-14T03:30:55;11.10;99.90
14995;DHT22;7593;49.006;8.372;2023-03-14T03:33:22;11.10;99.90
14995;DHT22;7593;49.006;8.372;2023-03-14T03:35:50;11.10;99.90
14995;DHT22;7593;49.006;8.372;2023-03-14T03:38:19;11.10;99.90
14995;DHT22;7593;49.006;8.372;2023-03-14T03:40:46;11.10;99.90
14995;DHT22;7593;49.006;8.372;2023-03-14T03:43:12;11.10;99.90
14995;DHT22;7593;49.006;8.372;2023-03-14T03:45:39;11.10;99.90
14995;DHT22;7593;49.006;8.372;2023-03-14T03:48:06;11.10;99.90
14995;DHT22;7593;49.006;8.372;2023-03-14T03:50:33;11.10;99.90
14995;DHT22;7593;49.006;8.372;2023-03-14T03:53:00;11.10;99.90
14995;DHT22;7593;49.006;8.372;2023-03-14T03:55:28;11.00;99.90
14995;DHT22;7593;49.006;8.372;2023-03-14T03:57:55;11.10;99.90
14995;DHT22;7593;49.006;8.372;2023-03-14T04:00:22;11.10;99.90
14995;DHT22;7593;49.006;8.372;2023-03-14T04:02:49;11.10;99.90
14995;DHT22;7593;49.006;8.372;2023-03-14T04:05:16;11.10;99.90
14995;DHT22;7593;49.006;8.372;2023-03-14T04:07:42;11.10;99.90
14995;DHT22;7593;49.006;8.372;2023-03-14T04:10:10;11.10;99.90
14995;DHT22;7593;49.006;8.372;2023-03-14T04:12:38;11.20;99.90
14995;DHT22;7593;49.006;8.372;2023-03-14T04:15:06;11.20;99.90
14995;DHT22;7593;49.006;8.372;2023-03-14T04:17:33;11.10;99.90
14995;DHT22;7593;49.006;8.372;2023-03-14T04:19:59;11.10;99.90
14995;DHT22;7593;49.006;8.372;2023-03-14T04:22:26;11.10;99.90
14995;DHT22;7593;49.006;8.372;2023-03-14T04:24:53;11.10;99.90
14995;DHT22;7593;49.006;8.372;2023-03-14T04:27:20;11.10;99.90
14995;DHT22;7593;49.006;8.372;2023-03-14T04:29:48;11.10;99.90
14995;DHT22;7593;49.006;8.372;2023-03-14T04:32:14;11.00;99.90
14995;DHT22;7593;49.006;8.372;2023-03-14T04:34:41;11.00;99.90
14995;DHT22;7593;49.006;8.372;2023-03-14T04:37:08;11.00;99.90
14995;DHT22;7593;49.006;8.372;2023-03-14T04:39:35;11.00;99.90
14995;DHT22;7593;49.006;8.372;2023-03-14T04:42:02;10.90;99.90
14995;DHT22;7593;49.006;8.372;2023-03-14T04:44:28;11.00;99.90
14995;DHT22;7593;49.006;8.372;2023-03-14T04:46:56;11.00;99.90
14995;DHT22;7593;49.006;8.372;2023-03-14T04:49:23;11.00;99.90
14995;DHT22;7593;49.006;8.372;2023-03-14T04:51:50;11.00;99.90
14995;DHT22;7593;49.006;8.372;2023-03-14T04:54:17;10.90;99.90
14995;DHT22;7593;49.006;8.372;2023-03-14T04:56:44;11.00;99.90
14995;DHT22;7593;49.006;8.372;2023-03-14T04:59:10;11.00;99.90
14995;DHT22;7593;49.006;8.372;2023-03-14T05:01:37;11.00;99.90
14995;DHT22;7593;49.006;8.372;2023-03-14T05:04:05;11.00;99.90
14995;DHT22;7593;49.006;8.372;2023-03-14T05:06:32;11.10;99.90
14995;DHT22;7593;49.006;8.372;2023-03-14T05:09:00;11.10;99.90
14995;DHT22;7593;49.006;8.372;2023-03-14T05:11:27;11.10;99.90
14995;DHT22;7593;49.006;8.372;2023-03-14T05:13:55;11.10;99.90
14995;DHT22;7593;49.006;8.372;2023-03-14T05:16:21;11.20;99.90
14995;DHT22;7593;49.006;8.372;2023-03-14T05:18:48;11.20;99.90
14995;DHT22;7593;49.006;8.372;2023-03-14T05:21:16;11.20;99.90
14995;DHT22;7593;49.006;8.372;2023-03-14T05:23:43;11.20;99.90
14995;DHT22;7593;49.006;8.372;2023-03-14T05:26:10;11.20;99.90
14995;DHT22;7593;49.006;8.372;2023-03-14T05:28:36;11.20;99.90
14995;DHT22;7593;49.006;8.372;2023-03-14T05:31:06;11.20;99.90
14995;DHT22;7593;49.006;8.372;2023-03-14T05:33:33;11.20;99.90
14995;DHT22;7593;49.006;8.372;2023-03-14T05:36:00;11.20;99.90
14995;DHT22;7593;49.006;8.372;2023-03-14T05:38:28;11.20;99.90
14995;DHT22;7593;49.006;8.372;2023-03-14T05:40:55;11.20;99.90
14995;DHT22;7593;49.006;8.372;2023-03-14T05:43:22;11.20;99.90
14995;DHT22;7593;49.006;8.372;2023-03-14T05:45:48;11.20;99.90
14995;DHT22;7593;49.006;8.372;2023-03-14T05:48:15;11.10;99.90
14995;DHT22;7593;49.006;8.372;2023-03-14T05:50:43;11.10;99.90
14995;DHT22;7593;49.006;8.372;2023-03-14T05:53:10;11.10;99.90
14995;DHT22;7593;49.006;8.372;2023-03-14T05:55:39;11.00;99.90
14995;DHT22;7593;49.006;8.372;2023-03-14T05:58:06;11.00;99.90
14995;DHT22;7593;49.006;8.372;2023-03-14T06:00:33;11.00;99.90
14995;DHT22;7593;49.006;8.372;2023-03-14T06:02:59;10.90;99.90
14995;DHT22;7593;49.006;8.372;2023-03-14T06:05:26;10.90;99.90
14995;DHT22;7593;49.006;8.372;2023-03-14T06:07:53;10.80;99.90
14995;DHT22;7593;49.006;8.372;2023-03-14T06:10:20;10.80;99.90
14995;DHT22;7593;49.006;8.372;2023-03-14T06:12:48;10.80;99.90
14995;DHT22;7593;49.006;8.372;2023-03-14T06:15:14;10.80;99.90
14995;DHT22;7593;49.006;8.372;2023-03-14T06:17:41;10.70;99.90
14995;DHT22;7593;49.006;8.372;2023-03-14T06:20:09;10.70;99.90
14995;DHT22;7593;49.006;8.372;2023-03-14T06:22:36;10.60;99.90
14995;DHT22;7593;49.006;8.372;2023-03-14T06:25:04;10.70;99.90
14995;DHT22;7593;49.006;8.372;2023-03-14T06:27:31;10.60;99.90
14995;DHT22;7593;49.006;8.372;2023-03-14T06:29:59;10.60;99.90
14995;DHT22;7593;49.006;8.372;2023-03-14T06:32:26;10.70;99.90
14995;DHT22;7593;49.006;8.372;2023-03-14T06:34:53;10.70;99.90
14995;DHT22;7593;49.006;8.372;2023-03-14T06:37:22;10.70;99.90
14995;DHT22;7593;49.006;8.372;2023-03-14T06:39:50;10.80;99.90
14995;DHT22;7593;49.006;8.372;2023-03-14T06:42:17;10.80;99.90
14995;DHT22;7593;49.006;8.372;2023-03-14T06:44:43;10.80;99.90
14995;DHT22;7593;49.006;8.372;2023-03-14T06:47:13;10.80;99.90
14995;DHT22;7593;49.006;8.372;2023-03-14T06:49:40;10.90;99.90
14995;DHT22;7593;49.006;8.372;2023-03-14T06:52:07;10.90;99.90
14995;DHT22;7593;49.006;8.372;2023-03-14T06:54:34;11.00;99.90
14995;DHT22;7593;49.006;8.372;2023-03-14T06:57:02;11.10;99.90
14995;DHT22;7593;49.006;8.372;2023-03-14T06:59:29;11.10;99.90
14995;DHT22;7593;49.006;8.372;2023-03-14T07:01:56;11.10;99.90
14995;DHT22;7593;49.006;8.372;2023-03-14T07:04:26;11.20;99.90
14995;DHT22;7593;49.006;8.372;2023-03-14T07:06:53;11.20;99.90
14995;DHT22;7593;49.006;8.372;2023-03-14T07:09:19;11.20;99.90
14995;DHT22;7593;49.006;8.372;2023-03-14T07:11:46;11.30;99.90
14995;DHT22;7593;49.006;8.372;2023-03-14T07:14:13;11.30;99.90
14995;DHT22;7593;49.006;8.372;2023-03-14T07:16:40;11.40;99.90
14995;DHT22;7593;49.006;8.372;2023-03-14T07:19:07;11.40;99.90
14995;DHT22;7593;49.006;8.372;2023-03-14T07:21:35;11.50;99.90
14995;DHT22;7593;49.006;8.372;2023-03-14T07:24:02;11.50;99.90
14995;DHT22;7593;49.006;8.372;2023-03-14T07:26:31;11.60;99.90
14995;DHT22;7593;49.006;8.372;2023-03-14T07:28:58;11.60;99.90
14995;DHT22;7593;49.006;8.372;2023-03-14T07:31:25;11.60;99.90
14995;DHT22;7593;49.006;8.372;2023-03-14T07:33:52;11.60;99.90
14995;DHT22;7593;49.006;8.372;2023-03-14T07:36:18;11.70;99.90
14995;DHT22;7593;49.006;8.372;2023-03-14T07:38:47;11.80;99.90
14995;DHT22;7593;49.006;8.372;2023-03-14T07:41:14;11.80;99.90
14995;DHT22;7593;49.006;8.372;2023-03-14T07:43:41;11.80;99.90
14995;DHT22;7593;49.006;8.372;2023-03-14T07:46:08;11.90;99.90
14995;DHT22;7593;49.006;8.372;2023-03-14T07:48:35;12.00;99.90
14995;DHT22;7593;49.006;8.372;2023-03-14T07:51:01;12.10;99.90
14995;DHT22;7593;49.006;8.372;2023-03-14T07:53:28;12.20;99.90
14995;DHT22;7593;49.006;8.372;2023-03-14T07:55:56;12.30;99.90
14995;DHT22;7593;49.006;8.372;2023-03-14T07:58:23;12.40;99.90
14995;DHT22;7593;49.006;8.372;2023-03-14T08:00:51;12.40;99.90
14995;DHT22;7593;49.006;8.372;2023-03-14T08:03:18;12.40;99.90
14995;DHT22;7593;49.006;8.372;2023-03-14T08:05:47;12.40;99.90
14995;DHT22;7593;49.006;8.372;2023-03-14T08:08:13;12.40;99.90
14995;DHT22;7593;49.006;8.372;2023-03-14T08:10:40;12.40;99.90
14995;DHT22;7593;49.006;8.372;2023-03-14T08:13:09;12.40;99.90
14995;DHT22;7593;49.006;8.372;2023-03-14T08:15:36;12.40;99.90
14995;DHT22;7593;49.006;8.372;2023-03-14T08:18:03;12.10;99.90
14995;DHT22;7593;49.006;8.372;2023-03-14T08:20:31;11.70;99.90
14995;DHT22;7593;49.006;8.372;2023-03-14T08:22:58;11.30;99.90
14995;DHT22;7593;49.006;8.372;2023-03-14T08:25:25;11.00;99.90
14995;DHT22;7593;49.006;8.372;2023-03-14T08:27:53;10.70;99.90
14995;DHT22;7593;49.006;8.372;2023-03-14T08:30:21;10.50;99.90
14995;DHT22;7593;49.006;8.372;2023-03-14T08:32:48;10.40;99.90
14995;DHT22;7593;49.006;8.372;2023-03-14T08:35:16;10.30;99.90
14995;DHT22;7593;49.006;8.372;2023-03-14T08:37:43;10.40;99.90
14995;DHT22;7593;49.006;8.372;2023-03-14T08:40:10;10.40;99.90
14995;DHT22;7593;49.006;8.372;2023-03-14T08:42:37;10.40;99.90
14995;DHT22;7593;49.006;8.372;2023-03-14T08:45:06;10.60;99.90
14995;DHT22;7593;49.006;8.372;2023-03-14T08:47:35;10.90;99.90
14995;DHT22;7593;49.006;8.372;2023-03-14T08:50:02;11.10;99.90
14995;DHT22;7593;49.006;8.372;2023-03-14T08:52:29;11.40;99.90
14995;DHT22;7593;49.006;8.372;2023-03-14T08:54:57;11.50;99.90
14995;DHT22;7593;49.006;8.372;2023-03-14T08:57:24;11.80;99.90
14995;DHT22;7593;49.006;8.372;2023-03-14T08:59:52;12.00;99.90
14995;DHT22;7593;49.006;8.372;2023-03-14T09:02:19;12.10;99.90
14995;DHT22;7593;49.006;8.372;2023-03-14T09:04:47;12.10;99.90
14995;DHT22;7593;49.006;8.372;2023-03-14T09:07:15;12.10;99.90
14995;DHT22;7593;49.006;8.372;2023-03-14T09:09:42;12.00;99.90
14995;DHT22;7593;49.006;8.372;2023-03-14T09:12:09;12.00;99.90
14995;DHT22;7593;49.006;8.372;2023-03-14T09:14:36;12.10;99.90
14995;DHT22;7593;49.006;8.372;2023-03-14T09:17:03;12.10;99.90
14995;DHT22;7593;49.006;8.372;2023-03-14T09:19:30;12.20;99.90
14995;DHT22;7593;49.006;8.372;2023-03-14T09:21:58;12.30;99.90
14995;DHT22;7593;49.006;8.372;2023-03-14T09:24:24;12.50;99.90
14995;DHT22;7593;49.006;8.372;2023-03-14T09:26:51;12.60;99.90
14995;DHT22;7593;49.006;8.372;2023-03-14T09:29:18;12.60;99.90
14995;DHT22;7593;49.006;8.372;2023-03-14T09:31:45;12.80;99.90
14995;DHT22;7593;49.006;8.372;2023-03-14T09:34:12;12.70;99.90
14995;DHT22;7593;49.006;8.372;2023-03-14T09:36:39;12.80;99.90
14995;DHT22;7593;49.006;8.372;2023-03-14T09:39:07;12.70;99.90
14995;DHT22;7593;49.006;8.372;2023-03-14T09:41:35;12.60;99.90
14995;DHT22;7593;49.006;8.372;2023-03-14T09:44:05;12.50;99.90
14995;DHT22;7593;49.006;8.372;2023-03-14T09:46:35;12.40;99.90
14995;DHT22;7593;49.006;8.372;2023-03-14T09:49:10;12.30;99.90
14995;DHT22;7593;49.006;8.372;2023-03-14T09:51:38;12.20;99.90
14995;DHT22;7593;49.006;8.372;2023-03-14T09:54:24;12.20;99.90
14995;DHT22;7593;49.006;8.372;2023-03-14T09:56:53;12.10;99.90
14995;DHT22;7593;49.006;8.372;2023-03-14T09:59:20;12.10;99.90
14995;DHT22;7593;49.006;8.372;2023-03-14T10:01:47;12.10;99.90
14995;DHT22;7593;49.006;8.372;2023-03-14T10:04:17;12.00;99.90
14995;DHT22;7593;49.006;8.372;2023-03-14T10:06:48;11.90;99.90
14995;DHT22;7593;49.006;8.372;2023-03-14T10:09:19;11.70;99.90
14995;DHT22;7593;49.006;8.372;2023-03-14T10:11:51;11.50;99.90
14995;DHT22;7593;49.006;8.372;2023-03-14T10:14:29;11.30;99.90
14995;DHT22;7593;49.006;8.372;2023-03-14T10:17:05;11.20;99.90
14995;DHT22;7593;49.006;8.372;2023-03-14T10:19:32;11.20;99.90
14995;DHT22;7593;49.006;8.372;2023-03-14T10:22:02;11.20;99.90
14995;DHT22;7593;49.006;8.372;2023-03-14T10:24:31;11.10;99.90
14995;DHT22;7593;49.006;8.372;2023-03-14T10:27:00;11.00;99.90
14995;DHT22;7593;49.006;8.372;2023-03-14T10:29:28;10.80;99.90
14995;DHT22;7593;49.006;8.372;2023-03-14T10:31:58;10.80;99.90
14995;DHT22;7593;49.006;8.372;2023-03-14T10:34:27;10.80;99.90
14995;DHT22;7593;49.006;8.372;2023-03-14T10:36:56;10.70;99.90
14995;DHT22;7593;49.006;8.372;2023-03-14T10:39:42;10.60;99.90
14995;DHT22;7593;49.006;8.372;2023-03-14T10:42:16;10.50;99.90
14995;DHT22;7593;49.006;8.372;2023-03-14T10:44:46;10.40;99.90
14995;DHT22;7593;49.006;8.372;2023-03-14T10:47:18;10.20;99.90
14995;DHT22;7593;49.006;8.372;2023-03-14T10:49:46;9.90;99.90
14995;DHT22;7593;49.006;8.372;2023-03-14T10:52:18;9.80;99.90
14995;DHT22;7593;49.006;8.372;2023-03-14T10:54:54;9.60;99.90
14995;DHT22;7593;49.006;8.372;2023-03-14T10:57:21;9.60;99.90
14995;DHT22;7593;49.006;8.372;2023-03-14T10:59:48;9.50;99.90
14995;DHT22;7593;49.006;8.372;2023-03-14T11:02:33;9.50;99.90
14995;DHT22;7593;49.006;8.372;2023-03-14T11:05:12;9.50;99.90
14995;DHT22;7593;49.006;8.372;2023-03-14T11:07:42;9.50;99.90
14995;DHT22;7593;49.006;8.372;2023-03-14T11:10:17;9.40;99.90
14995;DHT22;7593;49.006;8.372;2023-03-14T11:12:52;9.40;99.90
14995;DHT22;7593;49.006;8.372;2023-03-14T11:15:27;9.30;99.90
14995;DHT22;7593;49.006;8.372;2023-03-14T11:18:16;9.30;99.90
14995;DHT22;7593;49.006;8.372;2023-03-14T11:20:51;9.20;99.90
14995;DHT22;7593;49.006;8.372;2023-03-14T11:23:21;9.30;99.90
14995;DHT22;7593;49.006;8.372;2023-03-14T11:25:56;9.20;99.90
14995;DHT22;7593;49.006;8.372;2023-03-14T11:28:29;9.30;99.90
14995;DHT22;7593;49.006;8.372;2023-03-14T11:31:04;9.40;99.90
14995;DHT22;7593;49.006;8.372;2023-03-14T11:33:37;9.40;99.90
14995;DHT22;7593;49.006;8.372;2023-03-14T11:36:07;9.50;99.90
14995;DHT22;7593;49.006;8.372;2023-03-14T11:38:37;9.40;99.90
14995;DHT22;7593;49.006;8.372;2023-03-14T11:41:10;9.00;99.90
14995;DHT22;7593;49.006;8.372;2023-03-14T11:43:40;8.70;99.90
14995;DHT22;7593;49.006;8.372;2023-03-14T11:46:11;8.50;99.90
14995;DHT22;7593;49.006;8.372;2023-03-14T11:48:45;8.40;99.90
14995;DHT22;7593;49.006;8.372;2023-03-14T11:51:20;8.30;99.90
14995;DHT22;7593;49.006;8.372;2023-03-14T11:53:57;8.20;99.90
14995;DHT22;7593;49.006;8.372;2023-03-14T11:56:31;8.20;99.90
14995;DHT22;7593;49.006;8.372;2023-03-14T11:59:02;8.10;99.90
14995;DHT22;7593;49.006;8.372;2023-03-14T12:01:44;7.90;99.90
14995;DHT22;7593;49.006;8.372;2023-03-14T12:04:20;7.90;99.90
14995;DHT22;7593;49.006;8.372;2023-03-14T12:06:49;7.90;99.90
14995;DHT22;7593;49.006;8.372;2023-03-14T12:09:18;7.90;99.90
14995;DHT22;7593;49.006;8.372;2023-03-14T12:11:50;7.80;99.90
14995;DHT22;7593;49.006;8.372;2023-03-14T12:14:24;7.70;99.90
14995;DHT22;7593;49.006;8.372;2023-03-14T12:16:54;7.70;99.90
14995;DHT22;7593;49.006;8.372;2023-03-14T12:19:29;7.80;99.90
14995;DHT22;7593;49.006;8.372;2023-03-14T12:22:00;7.70;99.90
14995;DHT22;7593;49.006;8.372;2023-03-14T12:24:30;7.60;99.90
14995;DHT22;7593;49.006;8.372;2023-03-14T12:27:00;7.60;99.90
14995;DHT22;7593;49.006;8.372;2023-03-14T12:29:28;7.60;99.90
14995;DHT22;7593;49.006;8.372;2023-03-14T12:32:20;7.70;99.90
14995;DHT22;7593;49.006;8.372;2023-03-14T12:34:48;7.90;99.90
14995;DHT22;7593;49.006;8.372;2023-03-14T12:37:30;8.00;99.90
14995;DHT22;7593;49.006;8.372;2023-03-14T12:40:11;8.30;99.90
14995;DHT22;7593;49.006;8.372;2023-03-14T12:42:57;9.00;99.90
14995;DHT22;7593;49.006;8.372;2023-03-14T12:45:28;10.00;99.90
14995;DHT22;7593;49.006;8.372;2023-03-14T12:48:02;10.80;99.90
14995;DHT22;7593;49.006;8.372;2023-03-14T12:50:41;11.30;99.90
14995;DHT22;7593;49.006;8.372;2023-03-14T12:56:09;11.50;99.90
14995;DHT22;7593;49.006;8.372;2023-03-14T12:58:44;11.30;99.90
14995;DHT22;7593;49.006;8.372;2023-03-14T13:01:16;11.20;99.90
14995;DHT22;7593;49.006;8.372;2023-03-14T13:03:45;11.20;99.90
14995;DHT22;7593;49.006;8.372;2023-03-14T13:06:50;11.10;99.90
14995;DHT22;7593;49.006;8.372;2023-03-14T13:09:45;11.10;99.90
14995;DHT22;7593;49.006;8.372;2023-03-14T13:12:17;11.20;99.90
14995;DHT22;7593;49.006;8.372;2023-03-14T13:14:48;11.30;99.90
14995;DHT22;7593;49.006;8.372;2023-03-14T13:17:23;11.10;99.90
14995;DHT22;7593;49.006;8.372;2023-03-14T13:19:53;11.10;99.90
14995;DHT22;7593;49.006;8.372;2023-03-14T13:22:24;10.90;99.90
14995;DHT22;7593;49.006;8.372;2023-03-14T13:24:59;10.80;99.90
14995;DHT22;7593;49.006;8.372;2023-03-14T13:27:25;10.80;99.90
14995;DHT22;7593;49.006;8.372;2023-03-14T13:29:54;10.70;99.90
14995;DHT22;7593;49.006;8.372;2023-03-14T13:32:22;10.70;99.90
14995;DHT22;7593;49.006;8.372;2023-03-14T13:34:52;10.60;99.90
14995;DHT22;7593;49.006;8.372;2023-03-14T13:37:23;10.50;99.90
14995;DHT22;7593;49.006;8.372;2023-03-14T13:39:51;10.40;99.90
14995;DHT22;7593;49.006;8.372;2023-03-14T13:42:18;10.40;99.90
14995;DHT22;7593;49.006;8.372;2023-03-14T13:44:46;10.50;99.90
14995;DHT22;7593;49.006;8.372;2023-03-14T13:47:17;10.40;99.90
14995;DHT22;7593;49.006;8.372;2023-03-14T13:49:48;10.50;99.90
14995;DHT22;7593;49.006;8.372;2023-03-14T13:52:28;10.40;99.90
14995;DHT22;7593;49.006;8.372;2023-03-14T13:54:56;10.30;99.90
14995;DHT22;7593;49.006;8.372;2023-03-14T13:57:23;10.20;99.90
14995;DHT22;7593;49.006;8.372;2023-03-14T14:00:01;10.30;99.90
14995;DHT22;7593;49.006;8.372;2023-03-14T14:02:35;10.30;99.90
14995;DHT22;7593;49.006;8.372;2023-03-14T14:05:03;10.30;99.90
14995;DHT22;7593;49.006;8.372;2023-03-14T14:07:30;10.60;99.90
14995;DHT22;7593;49.006;8.372;2023-03-14T14:09:59;10.90;99.90
14995;DHT22;7593;49.006;8.372;2023-03-14T14:12:29;11.30;99.90
14995;DHT22;7593;49.006;8.372;2023-03-14T14:15:02;11.50;99.90
14995;DHT22;7593;49.006;8.372;2023-03-14T14:17:34;11.70;99.90
14995;DHT22;7593;49.006;8.372;2023-03-14T14:20:04;11.90;99.90
14995;DHT22;7593;49.006;8.372;2023-03-14T14:22:33;12.70;99.90
14995;DHT22;7593;49.006;8.372;2023-03-14T14:25:00;12.90;99.50
14995;DHT22;7593;49.006;8.372;2023-03-14T14:27:29;13.00;99.20
14995;DHT22;7593;49.006;8.372;2023-03-14T14:30:02;13.20;98.60
14995;DHT22;7593;49.006;8.372;2023-03-14T14:32:36;13.40;97.40
14995;DHT22;7593;49.006;8.372;2023-03-14T14:35:03;14.00;98.70
14995;DHT22;7593;49.006;8.372;2023-03-14T14:37:32;14.30;97.00
14995;DHT22;7593;49.006;8.372;2023-03-14T14:40:06;13.60;96.40
14995;DHT22;7593;49.006;8.372;2023-03-14T14:42:34;13.30;97.20
14995;DHT22;7593;49.006;8.372;2023-03-14T14:45:09;12.60;97.70
14995;DHT22;7593;49.006;8.372;2023-03-14T14:50:26;11.70;99.50
14995;DHT22;7593;49.006;8.372;2023-03-14T14:52:56;12.40;99.90
14995;DHT22;7593;49.006;8.372;2023-03-14T14:55:30;13.10;98.40
14995;DHT22;7593;49.006;8.372;2023-03-14T14:57:57;13.40;97.90
14995;DHT22;7593;49.006;8.372;2023-03-14T15:00:26;12.80;97.90
14995;DHT22;7593;49.006;8.372;2023-03-14T15:02:59;12.20;98.90
14995;DHT22;7593;49.006;8.372;2023-03-14T15:05:27;11.70;99.50
14995;DHT22;7593;49.006;8.372;2023-03-14T15:07:55;11.30;99.90
14995;DHT22;7593;49.006;8.372;2023-03-14T15:10:24;10.90;99.90
14995;DHT22;7593;49.006;8.372;2023-03-14T15:12:52;10.80;99.90
14995;DHT22;7593;49.006;8.372;2023-03-14T15:15:20;10.70;99.90
14995;DHT22;7593;49.006;8.372;2023-03-14T15:17:46;10.70;99.90
14995;DHT22;7593;49.006;8.372;2023-03-14T15:20:16;10.70;99.90
14995;DHT22;7593;49.006;8.372;2023-03-14T15:22:44;10.80;99.90
14995;DHT22;7593;49.006;8.372;2023-03-14T15:25:12;10.80;99.90
14995;DHT22;7593;49.006;8.372;2023-03-14T15:27:39;10.70;99.90
14995;DHT22;7593;49.006;8.372;2023-03-14T15:30:10;10.70;99.90
14995;DHT22;7593;49.006;8.372;2023-03-14T15:32:37;10.70;99.90
14995;DHT22;7593;49.006;8.372;2023-03-14T15:35:05;10.60;99.90
14995;DHT22;7593;49.006;8.372;2023-03-14T15:37:34;10.60;99.90
14995;DHT22;7593;49.006;8.372;2023-03-14T15:40:03;10.60;99.90
14995;DHT22;7593;49.006;8.372;2023-03-14T15:42:37;10.50;99.90
14995;DHT22;7593;49.006;8.372;2023-03-14T15:45:04;10.40;99.90
14995;DHT22;7593;49.006;8.372;2023-03-14T15:47:31;10.20;99.90
14995;DHT22;7593;49.006;8.372;2023-03-14T15:49:58;10.20;99.90
14995;DHT22;7593;49.006;8.372;2023-03-14T15:52:25;10.10;99.90
14995;DHT22;7593;49.006;8.372;2023-03-14T15:54:53;10.10;99.90
14995;DHT22;7593;49.006;8.372;2023-03-14T15:57:20;10.00;99.90
14995;DHT22;7593;49.006;8.372;2023-03-14T15:59:47;10.00;99.90
14995;DHT22;7593;49.006;8.372;2023-03-14T16:02:13;9.90;99.90
14995;DHT22;7593;49.006;8.372;2023-03-14T16:04:40;9.80;99.90
14995;DHT22;7593;49.006;8.372;2023-03-14T16:07:07;9.70;99.90
14995;DHT22;7593;49.006;8.372;2023-03-14T16:09:34;9.60;99.90